createdAt,value
2023-03-29T00:02:23.010Z,9.55
2023-03-29T00:04:50.620Z,9.37
2023-03-29T00:07:18.340Z,9.50
2023-03-29T00:09:47.259Z,10.37
2023-03-29T00:12:15.471Z,10.79
2023-03-29T00:14:43.028Z,11.00
2023-03-29T00:17:10.675Z,10.75
2023-03-29T00:19:38.400Z,10.39
2023-03-29T00:22:06.348Z,11.15
2023-03-29T00:24:33.929Z,9.81
2023-03-29T00:27:03.019Z,10.55
2023-03-29T00:29:30.609Z,10.63
2023-03-29T00:31:58.417Z,9.89
2023-03-29T00:34:27.417Z,10.04
2023-03-29T00:36:54.991Z,10.31
2023-03-29T00:39:22.610Z,10.23
2023-03-29T00:41:51.173Z,9.60
2023-03-29T00:44:57.071Z,9.13
2023-03-29T00:47:30.727Z,9.18
2023-03-29T00:50:05.145Z,9.30
2023-03-29T00:52:34.339Z,9.30
2023-03-29T00:55:08.052Z,9.21
2023-03-29T00:57:38.777Z,9.34
2023-03-29T01:00:10.924Z,9.40
2023-03-29T01:02:42.209Z,9.44
2023-03-29T01:05:17.428Z,9.67
2023-03-29T01:07:52.575Z,9.55
2023-03-29T01:10:27.314Z,10.01
2023-03-29T01:13:04.900Z,10.13
2023-03-29T01:15:34.109Z,9.82
2023-03-29T01:18:02.105Z,10.07
2023-03-29T01:20:43.593Z,10.34
2023-03-29T01:23:28.630Z,10.01
2023-03-29T01:26:10.021Z,9.57
2023-03-29T01:28:50.832Z,9.67
2023-03-29T01:31:26.188Z,9.37
2023-03-29T01:34:03.247Z,9.16
2023-03-29T01:36:39.541Z,9.23
2023-03-29T01:39:08.120Z,9.29
2023-03-29T01:41:46.453Z,9.45
2023-03-29T01:44:24.543Z,10.07
2023-03-29T01:47:02.649Z,10.72
2023-03-29T01:49:37.195Z,10.20
2023-03-29T01:52:13.701Z,10.15
2023-03-29T01:54:51.945Z,11.19
2023-03-29T01:57:21.263Z,11.65
2023-03-29T01:59:55.266Z,11.75
2023-03-29T02:02:27.511Z,11.73
2023-03-29T02:04:57.528Z,11.27
2023-03-29T02:07:29.724Z,11.81
2023-03-29T02:09:58.720Z,10.41
2023-03-29T02:12:26.396Z,10.49
2023-03-29T02:14:57.551Z,10.08
2023-03-29T02:17:27.801Z,10.28
2023-03-29T02:20:02.330Z,10.35
2023-03-29T02:22:40.621Z,10.65
2023-03-29T02:25:09.092Z,10.58
2023-03-29T02:27:37.827Z,10.76
2023-03-29T02:30:10.229Z,9.96
2023-03-29T02:32:49.050Z,9.83
2023-03-29T02:35:27.107Z,10.20
2023-03-29T02:37:57.980Z,11.05
2023-03-29T02:40:26.103Z,11.29
2023-03-29T02:42:57.508Z,11.49
2023-03-29T02:45:29.671Z,11.03
2023-03-29T02:48:03.609Z,11.08
2023-03-29T02:50:37.717Z,11.45
2023-03-29T02:53:11.935Z,11.04
2023-03-29T02:55:41.015Z,11.05
2023-03-29T02:58:08.679Z,11.88
2023-03-29T03:00:41.968Z,11.89
2023-03-29T03:03:12.773Z,11.76
2023-03-29T03:05:40.885Z,10.98
2023-03-29T03:08:08.510Z,10.31
2023-03-29T03:10:36.910Z,9.98
2023-03-29T03:13:04.467Z,10.94
2023-03-29T03:15:32.568Z,10.10
2023-03-29T03:18:01.938Z,9.80
2023-03-29T03:20:30.059Z,9.52
2023-03-29T03:22:57.780Z,9.42
2023-03-29T03:25:25.752Z,9.70
2023-03-29T03:27:54.556Z,9.57
2023-03-29T03:30:22.160Z,9.86
2023-03-29T03:32:49.799Z,10.54
2023-03-29T03:35:18.902Z,9.93
2023-03-29T03:37:46.538Z,9.71
2023-03-29T03:40:14.726Z,9.40
2023-03-29T03:42:42.349Z,9.35
2023-03-29T03:45:10.850Z,9.21
2023-03-29T03:47:38.747Z,9.27
2023-03-29T03:50:07.886Z,9.51
2023-03-29T03:52:39.457Z,10.08
2023-03-29T03:55:07.722Z,9.78
2023-03-29T03:57:35.711Z,10.23
2023-03-29T04:00:04.221Z,10.26
2023-03-29T04:02:32.112Z,9.99
2023-03-29T04:04:59.743Z,10.44
2023-03-29T04:07:28.781Z,10.17
2023-03-29T04:09:57.834Z,9.70
2023-03-29T04:12:25.487Z,9.39
2023-03-29T04:14:55.656Z,9.25
2023-03-29T04:17:23.831Z,9.16
2023-03-29T04:19:51.637Z,9.24
2023-03-29T04:22:19.247Z,9.23
2023-03-29T04:24:46.815Z,9.28
2023-03-29T04:27:15.697Z,9.30
2023-03-29T04:29:43.392Z,9.35
2023-03-29T04:32:11.095Z,9.28
2023-03-29T04:34:38.842Z,9.21
2023-03-29T04:37:06.588Z,9.18
2023-03-29T04:39:34.411Z,9.15
2023-03-29T04:42:02.041Z,9.08
2023-03-29T04:44:31.258Z,9.09
2023-03-29T04:46:59.352Z,9.18
2023-03-29T04:49:27.077Z,9.14
2023-03-29T04:51:55.289Z,9.24
2023-03-29T04:54:22.921Z,9.16
2023-03-29T04:56:50.447Z,9.15
2023-03-29T04:59:18.053Z,9.23
2023-03-29T05:01:47.043Z,9.20
2023-03-29T05:04:14.768Z,9.29
2023-03-29T05:06:42.355Z,9.30
2023-03-29T05:09:11.326Z,9.30
2023-03-29T05:11:38.873Z,9.40
2023-03-29T05:14:06.475Z,9.36
2023-03-29T05:16:35.500Z,9.56
2023-03-29T05:19:05.082Z,9.92
2023-03-29T05:21:35.001Z,10.51
2023-03-29T05:24:04.804Z,10.22
2023-03-29T05:26:32.525Z,10.43
2023-03-29T05:29:00.123Z,10.48
2023-03-29T05:31:27.756Z,10.56
2023-03-29T05:33:56.408Z,11.05
2023-03-29T05:36:26.968Z,11.68
2023-03-29T05:38:54.597Z,11.35
2023-03-29T05:41:22.826Z,11.03
2023-03-29T05:43:50.736Z,10.94
2023-03-29T05:46:18.589Z,10.82
2023-03-29T05:48:46.580Z,11.67
2023-03-29T05:51:14.483Z,11.12
2023-03-29T05:53:43.838Z,11.04
2023-03-29T05:56:13.051Z,10.71
2023-03-29T05:58:40.794Z,10.60
2023-03-29T06:01:12.234Z,11.29
2023-03-29T06:03:41.058Z,11.65
2023-03-29T06:06:09.641Z,10.90
2023-03-29T06:08:37.529Z,11.19
2023-03-29T06:11:07.363Z,11.56
2023-03-29T06:13:35.241Z,11.50
2023-03-29T06:16:02.998Z,11.65
2023-03-29T06:18:30.546Z,11.73
2023-03-29T06:20:58.609Z,10.85
2023-03-29T06:23:26.437Z,10.93
2023-03-29T06:25:55.341Z,11.12
2023-03-29T06:28:24.348Z,11.86
2023-03-29T06:30:52.201Z,12.15
2023-03-29T06:33:20.065Z,11.78
2023-03-29T06:35:49.652Z,11.28
2023-03-29T06:38:17.319Z,11.10
2023-03-29T06:40:44.993Z,11.38
2023-03-29T06:43:12.962Z,11.40
2023-03-29T06:45:46.383Z,11.71
2023-03-29T06:48:14.199Z,12.14
2023-03-29T06:50:41.779Z,11.52
2023-03-29T06:53:09.425Z,11.48
2023-03-29T06:55:37.003Z,11.10
2023-03-29T06:58:04.512Z,10.81
2023-03-29T07:00:33.189Z,10.48
2023-03-29T07:03:06.254Z,11.12
2023-03-29T07:05:34.161Z,11.18
2023-03-29T07:08:02.577Z,11.30
2023-03-29T07:10:32.970Z,11.02
2023-03-29T07:13:01.328Z,10.85
2023-03-29T07:15:29.034Z,10.61
2023-03-29T07:17:56.915Z,10.49
2023-03-29T07:20:26.298Z,10.39
2023-03-29T07:22:54.541Z,10.36
2023-03-29T07:25:23.955Z,11.15
2023-03-29T07:27:51.593Z,11.32
2023-03-29T07:30:22.093Z,10.89
2023-03-29T07:32:51.167Z,10.39
2023-03-29T07:35:19.434Z,10.06
2023-03-29T07:37:49.079Z,10.19
2023-03-29T07:40:18.899Z,9.84
2023-03-29T07:42:46.728Z,9.73
2023-03-29T07:45:16.032Z,10.10
2023-03-29T07:47:44.424Z,9.67
2023-03-29T07:50:12.327Z,10.16
2023-03-29T07:52:40.768Z,10.27
2023-03-29T07:55:11.663Z,10.06
2023-03-29T07:57:39.834Z,10.42
2023-03-29T08:00:08.855Z,10.65
2023-03-29T08:02:36.508Z,10.02
2023-03-29T08:05:04.672Z,9.75
2023-03-29T08:07:32.579Z,10.06
2023-03-29T08:10:00.250Z,10.14
2023-03-29T08:12:29.304Z,10.16
2023-03-29T08:14:56.932Z,10.29
2023-03-29T08:17:24.638Z,10.72
2023-03-29T08:19:52.463Z,10.78
2023-03-29T08:22:20.137Z,11.52
2023-03-29T08:24:47.787Z,10.86
2023-03-29T08:27:16.410Z,10.86
2023-03-29T08:29:47.696Z,10.32
2023-03-29T08:32:15.260Z,10.35
2023-03-29T08:34:42.999Z,10.07
2023-03-29T08:37:10.637Z,10.13
2023-03-29T08:39:38.472Z,10.40
2023-03-29T08:42:29.582Z,11.19
2023-03-29T08:45:09.262Z,11.51
2023-03-29T08:47:51.575Z,12.16
2023-03-29T08:50:22.631Z,12.47
2023-03-29T08:52:57.156Z,12.29
2023-03-29T08:55:31.579Z,11.34
2023-03-29T08:58:02.776Z,11.23
2023-03-29T09:00:39.933Z,11.90
2023-03-29T09:03:18.600Z,12.59
2023-03-29T09:05:51.291Z,12.14
2023-03-29T09:08:21.701Z,11.95
2023-03-29T09:11:11.338Z,12.35
2023-03-29T09:13:52.002Z,11.89
2023-03-29T09:16:33.020Z,11.11
2023-03-29T09:19:14.103Z,11.10
2023-03-29T09:21:49.023Z,11.32
2023-03-29T09:24:40.846Z,11.41
2023-03-29T09:27:13.406Z,11.15
2023-03-29T09:29:57.972Z,11.34
2023-03-29T09:32:33.568Z,12.26
2023-03-29T09:35:13.680Z,10.56
2023-03-29T09:37:42.264Z,10.50
2023-03-29T09:40:15.550Z,10.36
2023-03-29T09:42:45.736Z,10.24
2023-03-29T09:45:13.531Z,10.39
2023-03-29T09:47:49.267Z,10.64
2023-03-29T09:50:30.725Z,10.72
2023-03-29T09:53:00.359Z,10.51
2023-03-29T09:55:34.262Z,10.19
2023-03-29T09:58:10.932Z,10.37
2023-03-29T10:00:39.826Z,10.44
2023-03-29T10:03:10.585Z,10.56
2023-03-29T10:05:38.584Z,10.47
2023-03-29T10:08:22.596Z,10.88
2023-03-29T10:10:50.175Z,10.85
2023-03-29T10:13:28.021Z,10.60
2023-03-29T10:16:02.157Z,10.77
2023-03-29T10:18:32.514Z,10.94
2023-03-29T10:21:02.205Z,11.34
2023-03-29T10:23:32.225Z,11.54
2023-03-29T10:26:02.407Z,11.72
2023-03-29T10:28:32.958Z,11.39
2023-03-29T10:31:02.129Z,11.47
2023-03-29T10:33:34.388Z,11.43
2023-03-29T10:36:07.217Z,11.48
2023-03-29T10:38:36.905Z,11.26
2023-03-29T10:41:10.235Z,11.20
2023-03-29T10:43:42.587Z,10.94
2023-03-29T10:46:12.324Z,11.07
2023-03-29T10:48:47.827Z,11.16
2023-03-29T10:51:18.274Z,11.52
2023-03-29T10:53:46.335Z,11.09
2023-03-29T10:56:36.380Z,11.17
2023-03-29T10:59:21.134Z,11.45
2023-03-29T11:02:08.195Z,11.51
2023-03-29T11:04:47.866Z,11.17
2023-03-29T11:07:34.505Z,10.58
2023-03-29T11:10:29.052Z,10.36
2023-03-29T11:13:07.953Z,10.49
2023-03-29T11:15:56.438Z,10.61
2023-03-29T11:18:44.799Z,10.58
2023-03-29T11:21:27.451Z,10.39
2023-03-29T11:24:20.910Z,10.37
2023-03-29T11:27:08.578Z,10.41
2023-03-29T11:29:49.614Z,10.68
2023-03-29T11:32:28.398Z,10.88
2023-03-29T11:35:10.634Z,10.83
2023-03-29T11:37:52.331Z,11.25
2023-03-29T11:40:34.086Z,11.63
2023-03-29T11:43:09.223Z,11.13
2023-03-29T11:45:43.388Z,10.93
2023-03-29T11:48:20.630Z,10.88
2023-03-29T11:50:55.425Z,10.87
2023-03-29T11:53:31.022Z,11.52
2023-03-29T11:56:08.531Z,11.47
2023-03-29T11:58:42.923Z,12.98
2023-03-29T12:01:17.592Z,12.80
2023-03-29T12:03:52.992Z,12.44
2023-03-29T12:06:28.204Z,11.28
2023-03-29T12:09:02.591Z,11.39
2023-03-29T12:11:38.650Z,11.02
2023-03-29T12:14:15.132Z,10.96
2023-03-29T12:16:49.455Z,10.96
2023-03-29T12:19:22.013Z,11.01
2023-03-29T12:21:52.613Z,11.64
2023-03-29T12:24:26.835Z,11.69
2023-03-29T12:27:24.290Z,11.93
2023-03-29T12:30:22.626Z,11.94
2023-03-29T12:33:15.795Z,12.02
2023-03-29T12:36:02.604Z,12.55
2023-03-29T12:38:32.459Z,12.93
2023-03-29T12:41:13.905Z,12.93
2023-03-29T12:43:42.271Z,13.96
2023-03-29T12:46:16.617Z,12.87
2023-03-29T12:48:48.592Z,11.67
2023-03-29T12:51:20.678Z,11.78
2023-03-29T12:53:52.214Z,12.28
2023-03-29T12:56:23.939Z,11.80
2023-03-29T12:59:24.014Z,12.31
2023-03-29T13:02:00.659Z,11.98
2023-03-29T13:04:48.196Z,11.85
2023-03-29T13:07:31.543Z,11.75
2023-03-29T13:10:01.844Z,13.00
2023-03-29T13:12:39.969Z,12.41
2023-03-29T13:15:23.806Z,12.26
2023-03-29T13:18:06.196Z,11.92
2023-03-29T13:20:45.896Z,12.03
2023-03-29T13:23:30.981Z,12.05
2023-03-29T13:26:17.285Z,12.25
2023-03-29T13:29:07.680Z,12.73
2023-03-29T13:31:43.407Z,13.19
2023-03-29T13:34:29.769Z,13.43
2023-03-29T13:37:12.387Z,13.60
2023-03-29T13:39:49.343Z,13.47
2023-03-29T13:42:20.398Z,13.50
2023-03-29T13:44:51.017Z,13.59
2023-03-29T13:47:40.222Z,12.98
2023-03-29T13:50:17.010Z,12.59
2023-03-29T13:53:06.100Z,12.72
2023-03-29T13:55:44.156Z,12.60
2023-03-29T13:58:19.985Z,12.75
2023-03-29T14:00:55.220Z,12.84
2023-03-29T14:03:26.756Z,13.07
2023-03-29T14:06:00.627Z,13.47
2023-03-29T14:08:35.440Z,13.55
2023-03-29T14:11:07.598Z,14.46
2023-03-29T14:13:35.704Z,14.20
2023-03-29T14:16:09.772Z,14.44
2023-03-29T14:18:40.996Z,14.75
2023-03-29T14:21:12.347Z,14.57
2023-03-29T14:23:44.740Z,14.69
2023-03-29T14:26:17.686Z,14.71
2023-03-29T14:28:48.656Z,14.27
2023-03-29T14:31:23.332Z,14.09
2023-03-29T14:33:56.670Z,14.16
2023-03-29T14:36:26.949Z,14.28
2023-03-29T14:38:57.800Z,14.36
2023-03-29T14:41:30.290Z,14.54
2023-03-29T14:43:59.668Z,14.66
2023-03-29T14:46:30.236Z,13.85
2023-03-29T14:48:59.709Z,14.06
2023-03-29T14:51:27.915Z,13.79
2023-03-29T14:53:59.060Z,13.42
2023-03-29T14:56:27.436Z,13.23
2023-03-29T14:58:56.666Z,13.09
2023-03-29T15:01:26.372Z,13.31
2023-03-29T15:03:56.736Z,13.60
2023-03-29T15:06:27.621Z,14.13
2023-03-29T15:09:05.248Z,14.26
2023-03-29T15:11:37.174Z,14.11
2023-03-29T15:14:08.799Z,14.15
2023-03-29T15:16:41.839Z,14.35
2023-03-29T15:19:19.502Z,14.51
2023-03-29T15:21:50.040Z,14.74
2023-03-29T15:24:22.282Z,15.02
2023-03-29T15:27:01.510Z,15.22
2023-03-29T15:29:40.653Z,14.91
2023-03-29T15:32:09.817Z,14.33
2023-03-29T15:34:38.848Z,13.95
2023-03-29T15:37:06.632Z,13.88
2023-03-29T15:39:34.573Z,14.02
2023-03-29T15:42:02.399Z,14.05
2023-03-29T15:44:33.192Z,13.92
2023-03-29T15:47:00.945Z,14.22
2023-03-29T15:49:28.634Z,14.70
2023-03-29T15:51:57.723Z,15.66
2023-03-29T15:54:25.667Z,15.67
2023-03-29T15:57:01.264Z,15.63
2023-03-29T15:59:30.465Z,15.89
2023-03-29T16:01:58.356Z,15.51
2023-03-29T16:04:27.229Z,15.59
2023-03-29T16:06:56.875Z,15.48
2023-03-29T16:09:24.791Z,15.70
2023-03-29T16:11:52.717Z,16.28
2023-03-29T16:14:22.615Z,16.22
2023-03-29T16:16:50.801Z,15.96
2023-03-29T16:19:19.471Z,15.92
2023-03-29T16:21:48.590Z,15.45
2023-03-29T16:24:25.168Z,15.32
2023-03-29T16:26:56.081Z,15.22
2023-03-29T16:29:24.901Z,15.13
2023-03-29T16:31:53.794Z,15.17
2023-03-29T16:34:22.818Z,16.16
2023-03-29T16:36:51.575Z,14.91
2023-03-29T16:39:20.581Z,14.44
2023-03-29T16:41:48.803Z,14.66
2023-03-29T16:44:21.782Z,15.03
2023-03-29T16:46:51.456Z,15.12
2023-03-29T16:49:20.296Z,15.11
2023-03-29T16:51:48.058Z,15.29
2023-03-29T16:54:16.615Z,15.35
2023-03-29T16:56:46.136Z,14.97
2023-03-29T16:59:15.805Z,14.65
2023-03-29T17:01:43.562Z,14.40
2023-03-29T17:04:11.459Z,14.18
2023-03-29T17:06:40.800Z,13.94
2023-03-29T17:09:10.105Z,13.88
2023-03-29T17:11:37.731Z,13.83
2023-03-29T17:14:08.162Z,14.22
2023-03-29T17:16:35.759Z,14.91
2023-03-29T17:19:03.433Z,14.94
2023-03-29T17:21:31.029Z,15.04
2023-03-29T17:23:58.982Z,14.99
2023-03-29T17:26:26.672Z,14.86
2023-03-29T17:28:54.782Z,14.90
2023-03-29T17:31:23.979Z,15.08
2023-03-29T17:33:51.719Z,15.19
2023-03-29T17:36:19.617Z,14.70
2023-03-29T17:38:47.452Z,14.05
2023-03-29T17:41:16.975Z,14.11
2023-03-29T17:43:44.619Z,14.56
2023-03-29T17:46:13.577Z,14.37
2023-03-29T17:48:42.488Z,14.13
2023-03-29T17:51:10.055Z,14.13
2023-03-29T17:53:37.641Z,14.69
2023-03-29T17:56:06.158Z,14.61
2023-03-29T17:58:33.930Z,14.83
2023-03-29T18:01:08.230Z,14.39
2023-03-29T18:03:36.159Z,15.12
2023-03-29T18:06:06.454Z,15.39
2023-03-29T18:08:37.797Z,14.79
2023-03-29T18:11:10.279Z,14.08
2023-03-29T18:13:38.026Z,13.54
2023-03-29T18:16:06.893Z,13.68
2023-03-29T18:18:35.610Z,13.48
2023-03-29T18:21:05.587Z,13.51
2023-03-29T18:23:33.457Z,14.38
2023-03-29T18:26:03.166Z,14.83
2023-03-29T18:28:31.294Z,13.98
2023-03-29T18:30:59.157Z,13.88
2023-03-29T18:33:26.802Z,13.78
2023-03-29T18:35:54.489Z,13.50
2023-03-29T18:38:23.495Z,13.23
2023-03-29T18:40:51.125Z,13.48
2023-03-29T18:43:18.950Z,13.76
2023-03-29T18:45:46.684Z,14.14
2023-03-29T18:48:14.936Z,14.26
2023-03-29T18:50:43.196Z,14.41
2023-03-29T18:53:10.839Z,14.49
2023-03-29T18:55:41.366Z,14.57
2023-03-29T18:58:09.259Z,14.63
2023-03-29T19:00:37.536Z,14.75
2023-03-29T19:03:05.790Z,14.87
2023-03-29T19:05:33.530Z,14.88
2023-03-29T19:08:01.589Z,14.80
2023-03-29T19:10:29.135Z,14.88
2023-03-29T19:12:58.083Z,14.75
2023-03-29T19:15:25.870Z,14.69
2023-03-29T19:17:53.494Z,14.82
2023-03-29T19:20:21.126Z,14.85
2023-03-29T19:22:48.663Z,14.77
2023-03-29T19:25:16.434Z,14.73
2023-03-29T19:27:44.060Z,14.74
2023-03-29T19:30:15.049Z,14.83
2023-03-29T19:32:42.983Z,14.73
2023-03-29T19:35:10.581Z,14.78
2023-03-29T19:37:38.900Z,14.78
2023-03-29T19:40:07.925Z,14.77
2023-03-29T19:42:35.573Z,14.83
2023-03-29T19:45:04.852Z,14.99
2023-03-29T19:47:34.134Z,15.15
2023-03-29T19:50:02.790Z,15.47
2023-03-29T19:52:30.734Z,15.12
2023-03-29T19:54:58.394Z,14.67
2023-03-29T19:57:26.095Z,14.30
2023-03-29T19:59:53.667Z,14.23
2023-03-29T20:02:21.298Z,14.44
2023-03-29T20:04:50.207Z,14.86
2023-03-29T20:07:17.860Z,14.70
2023-03-29T20:09:45.488Z,14.50
2023-03-29T20:12:13.246Z,15.14
2023-03-29T20:14:40.966Z,15.51
2023-03-29T20:17:08.662Z,15.61
2023-03-29T20:19:36.321Z,15.24
2023-03-29T20:22:07.933Z,14.76
2023-03-29T20:24:37.276Z,14.17
2023-03-29T20:27:05.386Z,14.48
2023-03-29T20:29:33.252Z,14.57
2023-03-29T20:32:00.833Z,14.70
2023-03-29T20:34:29.275Z,14.51
2023-03-29T20:36:56.916Z,14.15
2023-03-29T20:39:26.286Z,14.22
2023-03-29T20:41:54.655Z,14.35
2023-03-29T20:44:23.162Z,14.55
2023-03-29T20:46:50.805Z,14.14
2023-03-29T20:49:18.494Z,13.94
2023-03-29T20:51:46.164Z,13.82
2023-03-29T20:54:13.805Z,13.86
2023-03-29T20:56:42.846Z,13.90
2023-03-29T20:59:10.679Z,13.90
2023-03-29T21:01:38.578Z,14.01
2023-03-29T21:04:06.663Z,14.02
2023-03-29T21:06:34.628Z,14.07
2023-03-29T21:09:02.285Z,14.03
2023-03-29T21:11:29.870Z,13.97
2023-03-29T21:13:58.833Z,13.82
2023-03-29T21:16:26.441Z,13.92
2023-03-29T21:18:54.395Z,13.98
2023-03-29T21:21:21.938Z,13.99
2023-03-29T21:23:49.590Z,14.09
2023-03-29T21:26:17.587Z,14.24
2023-03-29T21:28:45.242Z,14.34
2023-03-29T21:31:14.460Z,14.46
2023-03-29T21:33:42.422Z,14.62
2023-03-29T21:36:10.145Z,14.80
2023-03-29T21:38:37.790Z,15.01
2023-03-29T21:41:08.734Z,15.07
2023-03-29T21:43:36.611Z,15.00
2023-03-29T21:46:04.786Z,15.06
2023-03-29T21:48:34.503Z,15.13
2023-03-29T21:51:03.124Z,14.98
2023-03-29T21:53:30.912Z,14.87
2023-03-29T21:55:58.582Z,14.62
2023-03-29T21:58:26.746Z,14.53
2023-03-29T22:00:55.817Z,14.24
2023-03-29T22:03:28.969Z,14.12
2023-03-29T22:06:05.686Z,14.26
2023-03-29T22:08:34.054Z,14.23
2023-03-29T22:11:08.207Z,14.20
2023-03-29T22:13:36.027Z,14.19
2023-03-29T22:16:05.201Z,14.23
2023-03-29T22:18:35.180Z,14.07
2023-03-29T22:21:04.312Z,14.09
2023-03-29T22:23:32.323Z,13.97
2023-03-29T22:26:04.910Z,13.98
2023-03-29T22:28:32.739Z,14.07
2023-03-29T22:31:02.245Z,13.96
2023-03-29T22:33:31.829Z,13.97
2023-03-29T22:35:59.833Z,13.93
2023-03-29T22:38:29.296Z,13.81
2023-03-29T22:40:57.075Z,13.78
2023-03-29T22:43:24.831Z,13.69
2023-03-29T22:45:52.417Z,13.52
2023-03-29T22:48:19.998Z,13.58
2023-03-29T22:50:49.344Z,13.57
2023-03-29T22:53:17.001Z,13.52
2023-03-29T22:55:46.088Z,13.77
2023-03-29T22:58:13.775Z,13.92
2023-03-29T23:00:41.553Z,14.01
2023-03-29T23:03:09.567Z,13.97
2023-03-29T23:05:38.312Z,14.03
2023-03-29T23:08:06.027Z,13.89
2023-03-29T23:10:33.844Z,13.90
2023-03-29T23:13:02.798Z,13.90
2023-03-29T23:15:30.342Z,13.92
2023-03-29T23:17:58.656Z,13.93
2023-03-29T23:20:26.288Z,13.86
2023-03-29T23:22:54.089Z,13.86
2023-03-29T23:25:21.715Z,13.72
2023-03-29T23:27:49.353Z,13.77
2023-03-29T23:30:19.441Z,13.52
2023-03-29T23:32:47.218Z,13.40
2023-03-29T23:35:15.835Z,13.16
2023-03-29T23:37:44.612Z,12.89
2023-03-29T23:40:13.981Z,12.87
2023-03-29T23:42:44.222Z,12.88
2023-03-29T23:45:14.791Z,12.85
2023-03-29T23:47:45.714Z,12.81
2023-03-29T23:50:14.255Z,12.72
2023-03-29T23:52:41.894Z,12.70
2023-03-29T23:55:14.091Z,12.71
2023-03-29T23:57:43.224Z,12.81
